createdAt,value
2022-09-18T02:32:09.104Z,0.00
2022-09-18T02:33:10.593Z,0.00
2022-09-18T02:34:09.835Z,0.00
2022-09-18T02:35:09.951Z,0.00
2022-09-18T02:36:10.115Z,0.00
2022-09-18T02:37:09.905Z,0.00
2022-09-18T02:38:09.903Z,0.00
2022-09-18T02:39:09.714Z,0.00
2022-09-18T02:40:10.201Z,0.00
2022-09-18T02:41:09.832Z,0.00
2022-09-18T02:42:09.832Z,0.00
2022-09-18T02:43:09.763Z,0.00
2022-09-18T02:44:09.977Z,0.00
2022-09-18T02:45:09.860Z,0.00
2022-09-18T02:46:10.030Z,0.00
2022-09-18T02:47:09.970Z,0.00
2022-09-18T02:48:09.905Z,0.00
2022-09-18T02:49:10.050Z,0.00
2022-09-18T02:50:09.924Z,0.00
2022-09-18T02:51:09.923Z,0.00
2022-09-18T02:52:10.667Z,0.00
2022-09-18T02:53:09.996Z,0.00
2022-09-18T02:54:09.974Z,0.00
2022-09-18T02:55:10.045Z,0.00
2022-09-18T07:52:01.196Z,6800.00
2022-09-18T07:53:02.190Z,7712.00
2022-09-18T07:54:02.263Z,7592.00
2022-09-18T07:55:02.128Z,9036.00
2022-09-18T07:56:02.095Z,11004.00
2022-09-18T07:57:02.134Z,9948.00
2022-09-18T07:58:02.111Z,11944.00
2022-09-18T07:59:02.050Z,10732.00
2022-09-18T08:00:02.043Z,7588.00
2022-09-18T08:01:02.038Z,7112.00
2022-09-18T08:02:02.169Z,7892.00
2022-09-18T08:03:02.121Z,10112.00
2022-09-18T08:04:02.109Z,10516.00
2022-09-18T08:05:01.974Z,12212.00
2022-09-18T08:06:01.964Z,13644.00
2022-09-18T08:07:01.971Z,13684.00
2022-09-18T08:08:01.973Z,15104.00
2022-09-18T08:09:01.968Z,15396.00
2022-09-18T08:10:01.908Z,13736.00
2022-09-18T08:11:02.579Z,13344.00
2022-09-18T08:12:03.666Z,14480.00
2022-09-18T08:13:01.912Z,17856.00
2022-09-18T08:14:01.920Z,21536.00
2022-09-18T12:29:02.520Z,13620.00
2022-09-18T12:30:03.471Z,32800.00
2022-09-18T12:31:03.531Z,47200.00
2022-09-18T12:32:03.426Z,42784.00
2022-09-18T12:33:03.389Z,42592.00
2022-09-18T12:34:03.538Z,38368.00
2022-09-18T12:35:03.425Z,41312.00
2022-09-18T12:36:07.167Z,22592.00
2022-09-18T12:37:03.396Z,40128.00
2022-09-18T12:38:03.412Z,44192.00
2022-09-18T12:39:04.335Z,41760.00
2022-09-18T12:40:04.801Z,23552.00
2022-09-18T12:41:04.077Z,17136.00
2022-09-18T12:42:04.100Z,65824.00
2022-09-18T12:43:04.823Z,23776.00
2022-09-18T12:44:03.893Z,22944.00
2022-09-18T12:45:03.891Z,81216.00
2022-09-18T12:46:05.293Z,87552.00
2022-09-18T12:47:04.013Z,23872.00
2022-09-18T12:48:04.128Z,19616.00
2022-09-18T12:49:04.101Z,15016.00
2022-09-18T12:50:04.110Z,10164.00
2022-09-18T12:51:03.826Z,11160.00
2022-09-18T12:52:04.084Z,11728.00
2022-09-18T12:53:09.906Z,10748.00
2022-09-18T12:54:06.693Z,10156.00
2022-09-18T12:55:03.836Z,9944.00
2022-09-18T12:56:03.968Z,9976.00
2022-09-18T12:57:03.887Z,9956.00
2022-09-18T12:58:04.072Z,10140.00
2022-09-18T12:59:03.797Z,10996.00
2022-09-18T13:00:03.792Z,13480.00
2022-09-18T13:01:03.915Z,16092.00
2022-09-18T13:02:03.726Z,33856.00
2022-09-18T13:03:04.775Z,86048.00
2022-09-18T13:04:03.963Z,90400.00
2022-09-18T13:05:03.766Z,91840.00
2022-09-18T13:06:03.837Z,95616.00
2022-09-18T13:07:03.630Z,96832.00
2022-09-18T13:08:03.541Z,96672.00
2022-09-18T13:09:03.629Z,97088.00
2022-09-18T13:10:03.712Z,93024.00
2022-09-18T13:11:03.584Z,99680.00
2022-09-18T13:12:03.747Z,100896.00
2022-09-18T13:13:03.607Z,48352.00
2022-09-18T13:14:03.683Z,25312.00
2022-09-18T13:15:03.660Z,24448.00
2022-09-18T13:16:03.781Z,38592.00
2022-09-18T13:17:04.219Z,24608.00
2022-09-18T13:18:04.236Z,85440.00
2022-09-18T13:19:04.253Z,14620.00
2022-09-18T13:20:04.190Z,14656.00
2022-09-18T13:21:04.167Z,16312.00
2022-09-18T13:22:04.214Z,19808.00
2022-09-18T13:23:05.028Z,41248.00
2022-09-18T13:24:05.207Z,49568.00
2022-09-18T13:25:04.159Z,45472.00
2022-09-18T13:26:04.157Z,38816.00
2022-09-18T13:27:04.643Z,29728.00
2022-09-18T13:28:04.130Z,20224.00
2022-09-18T13:29:04.105Z,26176.00
2022-09-18T13:30:04.174Z,27488.00
2022-09-18T13:31:04.056Z,21184.00
2022-09-18T13:32:04.286Z,23552.00
2022-09-18T13:33:04.014Z,72704.00
2022-09-18T13:34:04.052Z,76256.00
2022-09-18T13:35:04.223Z,78976.00
2022-09-18T13:36:05.128Z,21088.00
2022-09-18T13:37:04.065Z,19168.00
2022-09-18T13:38:04.281Z,22496.00
2022-09-18T13:39:04.331Z,23008.00
2022-09-18T13:40:10.494Z,26016.00
2022-09-18T13:41:04.188Z,36128.00
2022-09-18T13:42:05.208Z,67168.00
2022-09-18T13:43:05.159Z,82656.00
2022-09-18T13:44:04.134Z,84736.00
2022-09-18T13:45:04.252Z,78816.00
2022-09-18T13:46:07.103Z,73888.00
2022-09-18T13:47:04.299Z,75616.00
2022-09-18T13:48:04.190Z,88896.00
2022-09-18T13:49:04.014Z,80704.00
2022-09-18T13:50:03.971Z,49184.00
2022-09-18T13:51:04.150Z,29632.00
2022-09-18T13:52:04.398Z,68096.00
2022-09-18T13:53:04.033Z,78016.00
2022-09-18T13:54:03.930Z,84256.00
2022-09-18T13:55:04.012Z,91424.00
2022-09-18T13:56:04.073Z,91584.00
2022-09-18T13:57:04.044Z,92224.00
2022-09-18T13:58:03.939Z,94016.00
2022-09-18T13:59:03.992Z,63552.00
2022-09-18T14:00:04.605Z,25792.00
2022-09-18T14:01:03.999Z,29408.00
2022-09-18T14:02:03.923Z,36192.00
2022-09-18T14:03:04.077Z,61472.00
2022-09-18T14:04:03.956Z,100992.00
2022-09-18T14:05:03.856Z,56608.00
2022-09-18T14:06:03.844Z,30912.00
2022-09-18T14:07:04.064Z,80736.00
2022-09-18T14:08:03.877Z,16516.00
2022-09-18T14:09:04.791Z,10720.00
2022-09-18T14:10:06.213Z,7912.00
2022-09-18T14:11:18.994Z,5228.00
2022-09-18T14:12:03.724Z,4056.00
2022-09-18T14:13:03.619Z,4356.00
2022-09-18T14:14:03.780Z,4724.00
2022-09-18T14:15:03.858Z,3976.00
2022-09-18T14:16:03.675Z,3464.00
2022-09-18T14:17:03.639Z,3348.00
2022-09-18T14:18:03.819Z,3152.00
2022-09-18T14:19:03.834Z,2764.00
2022-09-18T14:20:05.726Z,2316.00
2022-09-18T14:21:03.461Z,2076.00
2022-09-18T14:22:03.695Z,2176.00
2022-09-18T14:23:03.363Z,2188.00
2022-09-18T14:24:03.392Z,2172.00
2022-09-18T14:25:03.516Z,2272.00
2022-09-18T14:26:03.400Z,2528.00
2022-09-18T14:27:04.430Z,2748.00
2022-09-18T14:28:04.290Z,2760.00
2022-09-18T14:29:03.475Z,2772.00
2022-09-18T14:30:03.603Z,2784.00
2022-09-18T14:31:03.356Z,3072.00
2022-09-18T14:32:03.340Z,3576.00
2022-09-18T14:33:03.696Z,4100.00
2022-09-18T14:34:03.482Z,4752.00
2022-09-18T14:35:03.408Z,5320.00
2022-09-18T14:36:03.729Z,6252.00
2022-09-18T14:37:03.284Z,6580.00
2022-09-18T14:38:03.287Z,6744.00
2022-09-18T14:39:03.200Z,6828.00
2022-09-18T14:40:03.717Z,6884.00
2022-09-18T14:41:03.216Z,6808.00
2022-09-18T14:42:03.209Z,6700.00
2022-09-18T14:43:03.496Z,6848.00
2022-09-18T14:44:04.530Z,7208.00
2022-09-18T14:45:03.224Z,7348.00
2022-09-18T14:46:04.118Z,7320.00
2022-09-18T14:47:03.157Z,7544.00
2022-09-18T14:48:03.182Z,8192.00
2022-09-18T14:49:03.438Z,8740.00
2022-09-18T14:50:03.160Z,9088.00
2022-09-18T14:51:03.109Z,9324.00
2022-09-18T14:52:04.653Z,9500.00
2022-09-18T14:53:04.964Z,9612.00
2022-09-18T14:54:03.099Z,9676.00
2022-09-18T14:55:03.030Z,9744.00
2022-09-18T14:56:03.024Z,9752.00
2022-09-18T14:57:03.018Z,9908.00
2022-09-18T14:58:03.117Z,10280.00
2022-09-18T14:59:03.042Z,10708.00
2022-09-18T15:00:03.037Z,11028.00
2022-09-18T15:01:03.976Z,12024.00
2022-09-18T15:02:02.947Z,11604.00
2022-09-18T15:03:02.969Z,10916.00
2022-09-18T15:04:03.006Z,8984.00
2022-09-18T15:05:03.174Z,10116.00
2022-09-18T15:06:03.059Z,9840.00
2022-09-18T15:07:03.207Z,13288.00
2022-09-18T15:08:03.035Z,12560.00
2022-09-18T15:09:03.370Z,13860.00
2022-09-18T15:10:02.903Z,13340.00
2022-09-18T15:11:03.104Z,12020.00
2022-09-18T15:12:03.556Z,9756.00
2022-09-18T15:13:03.181Z,10280.00
2022-09-18T15:14:02.897Z,14828.00
2022-09-18T15:15:02.917Z,51712.00
2022-09-18T15:16:03.048Z,47744.00
2022-09-18T15:17:02.914Z,71872.00
2022-09-18T15:18:03.135Z,78016.00
2022-09-18T15:19:02.983Z,67680.00
2022-09-18T15:20:03.253Z,62464.00
2022-09-18T15:21:02.744Z,49728.00
2022-09-18T15:22:03.282Z,71296.00
2022-09-18T15:23:03.017Z,38496.00
2022-09-18T15:24:03.091Z,33408.00
2022-09-18T15:25:03.081Z,37152.00
2022-09-18T15:26:03.034Z,16044.00
2022-09-18T15:27:03.084Z,77920.00
2022-09-18T15:28:05.787Z,20576.00
2022-09-18T15:29:02.916Z,69984.00
2022-09-18T15:30:03.063Z,75136.00
2022-09-18T15:31:02.991Z,68352.00
2022-09-18T15:32:03.006Z,25152.00
2022-09-18T15:33:02.810Z,40416.00
2022-09-18T15:34:03.420Z,55584.00
2022-09-18T15:35:02.928Z,73536.00
2022-09-18T15:36:02.912Z,21664.00
2022-09-18T15:37:02.894Z,19648.00
2022-09-18T15:38:03.683Z,17696.00
2022-09-18T15:39:05.921Z,25056.00
2022-09-18T15:40:03.301Z,59296.00
2022-09-18T15:41:02.710Z,56832.00
2022-09-18T15:42:03.099Z,18208.00
2022-09-18T15:43:02.673Z,19744.00
2022-09-18T15:44:02.602Z,14168.00
2022-09-18T15:45:02.874Z,18272.00
2022-09-18T15:46:02.925Z,50016.00
2022-09-18T15:47:02.635Z,49632.00
2022-09-18T15:48:02.560Z,45472.00
2022-09-18T15:49:02.515Z,22016.00
2022-09-18T15:50:02.584Z,14976.00
2022-09-18T15:51:02.604Z,13632.00
2022-09-18T15:52:02.815Z,17216.00
2022-09-18T15:53:02.597Z,15328.00
2022-09-18T15:54:02.788Z,19232.00
2022-09-18T15:55:02.627Z,21856.00
2022-09-18T15:56:02.529Z,29376.00
2022-09-18T15:57:02.318Z,35520.00
2022-09-18T15:58:02.364Z,26464.00
2022-09-18T15:59:02.396Z,13656.00
2022-09-18T16:00:02.316Z,21536.00
2022-09-18T16:01:02.374Z,37312.00
2022-09-18T16:02:02.381Z,37120.00
2022-09-18T16:03:02.281Z,18144.00
2022-09-18T16:04:06.667Z,41248.00
2022-09-18T16:05:02.436Z,41888.00
2022-09-18T16:06:02.216Z,40032.00
2022-09-18T16:07:02.221Z,47584.00
2022-09-18T16:08:02.181Z,42560.00
2022-09-18T16:09:02.214Z,40288.00
2022-09-18T16:10:02.271Z,31776.00
2022-09-18T16:11:02.192Z,35392.00
2022-09-18T16:12:02.252Z,31232.00
2022-09-18T16:13:02.210Z,6368.00
2022-09-18T16:14:02.247Z,6088.00
2022-09-18T16:15:02.159Z,4612.00
2022-09-18T16:16:04.440Z,4456.00
2022-09-18T16:17:02.112Z,4408.00
2022-09-18T16:18:02.126Z,4272.00
2022-09-18T16:19:02.102Z,4252.00
2022-09-18T16:20:02.081Z,4408.00
2022-09-18T16:21:02.081Z,4952.00
2022-09-18T16:22:02.108Z,6260.00
2022-09-18T16:23:02.539Z,8900.00
2022-09-18T16:24:02.090Z,10080.00
2022-09-18T16:25:02.090Z,8076.00
2022-09-18T16:26:02.159Z,6436.00
2022-09-18T16:27:03.022Z,5016.00
2022-09-18T16:28:04.092Z,3908.00
2022-09-18T16:29:02.084Z,2748.00
2022-09-18T16:30:02.058Z,2228.00
2022-09-18T16:31:08.541Z,2076.00
2022-09-18T16:32:02.020Z,2100.00
2022-09-18T16:33:01.965Z,2096.00
2022-09-18T16:34:01.960Z,2172.00
2022-09-18T16:35:01.907Z,2184.00
2022-09-18T16:36:02.724Z,2124.00
2022-09-18T16:37:02.463Z,2148.00
2022-09-18T16:38:02.458Z,2188.00
2022-09-18T16:39:01.917Z,2352.00
2022-09-18T16:40:01.975Z,2504.00
2022-09-18T16:41:01.935Z,2664.00
2022-09-18T16:42:02.405Z,2872.00
2022-09-18T16:43:02.832Z,3304.00
2022-09-18T16:44:01.839Z,3560.00
2022-09-18T16:45:02.491Z,3192.00
2022-09-18T16:46:04.916Z,3168.00
2022-09-18T16:47:01.903Z,3352.00
2022-09-18T16:48:01.801Z,3400.00
2022-09-18T16:49:02.074Z,3444.00
2022-09-18T16:50:01.729Z,3432.00
2022-09-18T16:51:01.757Z,3428.00
2022-09-18T16:52:01.767Z,3376.00
2022-09-18T16:53:01.878Z,3420.00
2022-09-18T16:54:01.704Z,3460.00
2022-09-18T16:55:01.806Z,3396.00
2022-09-18T16:56:01.881Z,3264.00
2022-09-18T16:57:01.830Z,3104.00
2022-09-18T16:58:01.780Z,2956.00
2022-09-18T16:59:01.608Z,2828.00
2022-09-18T17:00:02.257Z,2704.00
2022-09-18T17:01:01.647Z,2548.00
2022-09-18T17:02:05.210Z,2380.00
2022-09-18T17:03:01.588Z,2212.00
2022-09-18T17:04:01.635Z,2072.00
2022-09-18T17:05:01.534Z,1924.00
2022-09-18T17:06:01.547Z,1796.00
2022-09-18T17:07:01.512Z,1724.00
2022-09-18T17:08:01.500Z,1612.00
2022-09-18T17:09:01.498Z,1452.00
2022-09-18T17:10:01.546Z,1296.00
2022-09-18T17:11:01.632Z,1184.00
2022-09-18T17:12:01.467Z,1152.00
2022-09-18T17:13:01.444Z,1188.00
2022-09-18T17:14:01.503Z,1244.00
2022-09-18T17:15:01.434Z,1328.00
2022-09-18T17:16:02.080Z,1360.00
2022-09-18T17:17:01.437Z,1376.00
2022-09-18T17:18:01.399Z,1380.00
2022-09-18T17:19:01.634Z,1356.00
2022-09-18T17:20:01.363Z,1296.00
2022-09-18T17:21:01.356Z,1232.00
2022-09-18T17:22:01.393Z,1172.00
2022-09-18T17:23:01.329Z,1108.00
2022-09-18T17:24:01.316Z,1024.00
2022-09-18T17:25:01.360Z,916.00
2022-09-18T17:26:01.304Z,812.00
2022-09-18T17:27:07.332Z,716.00
2022-09-18T17:28:01.274Z,652.00
2022-09-18T17:29:01.270Z,596.00
2022-09-18T17:30:01.238Z,608.00
2022-09-18T17:31:01.241Z,620.00
2022-09-18T17:32:01.225Z,596.00
2022-09-18T17:33:01.262Z,536.00
2022-09-18T17:34:02.313Z,436.00
2022-09-18T17:35:01.196Z,372.00
2022-09-18T17:36:01.187Z,332.00
2022-09-18T17:37:02.918Z,292.00
2022-09-18T17:38:01.163Z,256.00
2022-09-18T17:39:02.600Z,224.00
2022-09-18T17:40:01.217Z,172.00
2022-09-18T17:41:01.133Z,124.00
2022-09-18T17:42:01.112Z,116.00
2022-09-18T17:43:01.191Z,116.00
2022-09-18T17:44:01.105Z,100.00
2022-09-18T17:45:01.142Z,72.00
2022-09-18T17:46:01.075Z,56.00
2022-09-18T17:47:01.129Z,52.00
2022-09-18T17:48:01.048Z,56.00
2022-09-18T17:49:01.085Z,64.00
2022-09-18T17:50:01.030Z,60.00
2022-09-18T17:51:01.085Z,56.00
2022-09-18T17:52:01.001Z,48.00
2022-09-18T17:53:01.052Z,44.00
2022-09-18T17:54:01.016Z,36.00
2022-09-18T17:55:00.971Z,32.00
2022-09-18T17:56:00.980Z,32.00
2022-09-18T17:57:01.033Z,28.00
2022-09-18T17:58:00.942Z,20.00
2022-09-18T17:59:00.932Z,16.00
2022-09-18T18:00:01.647Z,12.00
2022-09-18T18:01:01.073Z,12.00
2022-09-18T18:02:00.933Z,8.00
2022-09-18T18:03:00.934Z,12.00
2022-09-18T18:04:01.009Z,8.00
2022-09-18T18:05:00.859Z,8.00
2022-09-18T18:06:00.852Z,8.00
2022-09-18T18:07:00.883Z,4.00
2022-09-18T18:08:00.837Z,8.00
2022-09-18T18:09:00.857Z,4.00
2022-09-18T18:10:00.937Z,4.00
2022-09-18T18:11:00.809Z,4.00
2022-09-18T18:12:00.783Z,4.00
2022-09-18T18:13:00.767Z,4.00
2022-09-18T18:14:01.266Z,0.00
2022-09-18T18:15:00.794Z,4.00
2022-09-18T18:16:00.793Z,4.00
2022-09-18T18:17:00.740Z,4.00
2022-09-18T18:18:01.264Z,0.00
2022-09-18T18:19:00.698Z,0.00
2022-09-18T18:20:00.687Z,0.00
2022-09-18T18:21:00.716Z,0.00
2022-09-18T18:22:00.678Z,0.00
2022-09-18T18:23:00.673Z,0.00
2022-09-18T18:24:01.447Z,0.00
2022-09-18T18:25:00.643Z,0.00
2022-09-18T18:26:00.622Z,0.00
2022-09-18T18:27:00.660Z,0.00
2022-09-18T18:28:00.619Z,0.00
2022-09-18T18:29:00.591Z,0.00
2022-09-18T18:30:00.575Z,0.00
2022-09-18T18:31:00.583Z,0.00
2022-09-18T18:32:00.617Z,0.00
2022-09-18T18:33:00.572Z,0.00
2022-09-18T18:34:00.537Z,0.00
2022-09-18T18:35:00.517Z,0.00
2022-09-18T18:36:00.516Z,0.00
2022-09-18T18:37:00.502Z,0.00
2022-09-18T18:38:00.503Z,0.00
2022-09-18T18:39:00.512Z,0.00
2022-09-18T18:40:00.537Z,0.00
2022-09-18T18:41:00.454Z,0.00
2022-09-18T18:42:00.447Z,0.00
2022-09-18T18:43:00.444Z,0.00
2022-09-18T18:44:00.413Z,0.00
2022-09-18T18:45:00.447Z,0.00
2022-09-18T18:46:00.481Z,0.00
2022-09-18T18:47:01.408Z,0.00
2022-09-18T18:48:01.040Z,0.00
2022-09-18T18:49:00.373Z,0.00
2022-09-18T18:50:00.346Z,0.00
2022-09-18T18:51:00.383Z,0.00
2022-09-18T18:52:00.324Z,0.00
2022-09-18T18:53:00.303Z,0.00
2022-09-18T18:54:00.309Z,0.00
2022-09-18T18:55:00.288Z,0.00
2022-09-18T18:56:00.323Z,0.00
2022-09-18T18:57:00.344Z,0.00
2022-09-18T18:58:00.263Z,0.00
2022-09-18T18:59:00.240Z,0.00
2022-09-18T19:00:00.247Z,0.00
2022-09-18T19:01:07.220Z,0.00
2022-09-18T19:02:00.367Z,0.00
2022-09-18T19:03:00.241Z,0.00
2022-09-18T19:04:00.225Z,0.00
2022-09-18T19:05:00.184Z,0.00
2022-09-18T19:06:00.183Z,0.00
2022-09-18T19:07:00.160Z,0.00
2022-09-18T19:08:00.138Z,0.00
2022-09-18T19:09:00.953Z,0.00
2022-09-18T19:10:00.136Z,0.00
2022-09-18T19:11:00.132Z,0.00
2022-09-18T19:12:01.028Z,0.00
2022-09-18T19:13:00.088Z,0.00
2022-09-18T19:14:00.076Z,0.00
2022-09-18T19:15:00.129Z,0.00
2022-09-18T19:16:00.144Z,0.00
2022-09-18T19:17:00.068Z,0.00
2022-09-18T19:18:00.023Z,0.00
2022-09-18T19:19:00.017Z,0.00
2022-09-18T19:20:00.025Z,0.00
2022-09-18T19:21:00.170Z,0.00
2022-09-18T19:22:00.083Z,0.00
2022-09-18T19:23:00.003Z,0.00
2022-09-18T19:23:59.985Z,0.00
2022-09-18T19:25:00.124Z,0.00
2022-09-18T19:26:00.312Z,0.00
2022-09-18T19:27:00.035Z,0.00
2022-09-18T19:27:59.956Z,0.00
2022-09-18T19:28:59.939Z,0.00
2022-09-18T19:29:59.947Z,0.00
2022-09-18T19:31:00.209Z,0.00
2022-09-18T19:33:28.021Z,0.00
2022-09-18T19:34:28.642Z,0.00
2022-09-18T19:35:35.477Z,0.00
2022-09-18T19:36:28.528Z,0.00
2022-09-18T19:37:28.473Z,0.00
2022-09-18T19:39:24.917Z,0.00
2022-09-18T19:40:25.952Z,0.00
2022-09-18T19:41:25.722Z,0.00
2022-09-18T19:42:26.014Z,0.00
2022-09-18T19:43:25.780Z,0.00
2022-09-18T19:44:25.872Z,0.00
2022-09-18T19:45:25.954Z,0.00
2022-09-18T19:46:25.664Z,0.00
2022-09-18T19:47:25.820Z,0.00
2022-09-18T19:48:25.769Z,0.00
2022-09-18T19:49:25.892Z,0.00
2022-09-18T19:50:25.622Z,0.00
2022-09-18T19:51:26.628Z,0.00
2022-09-18T19:52:25.760Z,0.00
2022-09-18T19:53:26.427Z,0.00
2022-09-18T19:54:25.813Z,0.00
2022-09-18T19:55:26.597Z,0.00
2022-09-18T19:56:42.184Z,0.00
2022-09-18T19:57:25.907Z,0.00
2022-09-18T19:58:25.907Z,0.00
2022-09-18T19:59:25.581Z,0.00
2022-09-18T20:00:25.665Z,0.00
2022-09-18T20:02:42.556Z,0.00
2022-09-18T20:03:42.900Z,0.00
2022-09-18T20:04:49.043Z,0.00
2022-09-18T20:05:43.156Z,0.00
2022-09-18T20:06:43.031Z,0.00
2022-09-18T20:07:49.249Z,0.00
2022-09-18T20:08:43.027Z,0.00
2022-09-18T20:09:43.107Z,0.00
2022-09-18T20:10:43.092Z,0.00
2022-09-18T20:11:47.624Z,0.00
2022-09-18T20:12:43.142Z,0.00
2022-09-18T20:13:43.260Z,0.00
2022-09-18T20:14:42.777Z,0.00
2022-09-18T20:15:42.823Z,0.00
2022-09-18T20:16:42.750Z,0.00
2022-09-18T20:17:42.755Z,0.00
2022-09-18T20:18:42.761Z,0.00
2022-09-18T20:19:42.841Z,0.00
2022-09-18T20:20:42.678Z,0.00
2022-09-18T20:21:43.722Z,0.00
2022-09-18T20:22:42.766Z,0.00
2022-09-18T20:23:42.618Z,0.00
2022-09-18T20:24:42.725Z,0.00
2022-09-18T20:25:42.715Z,0.00
2022-09-18T20:26:42.622Z,0.00
2022-09-18T20:27:42.637Z,0.00
2022-09-18T20:28:42.886Z,0.00
2022-09-18T20:29:42.730Z,0.00
2022-09-18T20:30:42.620Z,0.00
2022-09-18T20:31:42.648Z,0.00
2022-09-18T20:32:42.602Z,0.00
2022-09-18T20:33:42.624Z,0.00
2022-09-18T20:34:47.081Z,0.00
2022-09-18T20:35:42.660Z,0.00
2022-09-18T20:36:42.793Z,0.00
2022-09-18T20:37:42.917Z,0.00
2022-09-18T20:38:42.559Z,0.00
2022-09-18T20:39:42.701Z,0.00
2022-09-18T20:40:42.871Z,0.00
2022-09-18T20:41:42.537Z,0.00
2022-09-18T20:42:42.549Z,0.00
2022-09-18T20:43:42.682Z,0.00
2022-09-18T20:44:42.615Z,0.00
2022-09-18T20:45:42.853Z,0.00
2022-09-18T20:46:42.625Z,0.00
2022-09-18T20:47:42.737Z,0.00
2022-09-18T20:48:42.821Z,0.00
2022-09-18T20:49:42.493Z,0.00
2022-09-18T20:50:42.664Z,0.00
2022-09-18T20:51:42.561Z,0.00
2022-09-18T20:52:43.330Z,0.00
2022-09-18T20:53:42.583Z,0.00
2022-09-18T20:54:43.106Z,0.00
2022-09-18T20:55:44.193Z,0.00
2022-09-18T20:56:42.342Z,0.00
2022-09-18T20:57:42.277Z,0.00
2022-09-18T20:58:42.296Z,0.00
2022-09-18T20:59:42.251Z,0.00
2022-09-18T21:00:42.288Z,0.00
2022-09-18T21:01:42.413Z,0.00
2022-09-18T21:02:42.648Z,0.00
2022-09-18T21:03:42.441Z,0.00
2022-09-18T21:04:46.561Z,0.00
2022-09-18T21:05:43.164Z,0.00
2022-09-18T21:06:42.158Z,0.00
2022-09-18T21:07:42.345Z,0.00
2022-09-18T21:08:42.097Z,0.00
2022-09-18T21:09:45.193Z,0.00
2022-09-18T21:10:42.512Z,0.00
2022-09-18T21:11:42.182Z,0.00
2022-09-18T21:12:42.300Z,0.00
2022-09-18T21:13:42.558Z,0.00
2022-09-18T21:14:42.146Z,0.00
2022-09-18T21:15:42.256Z,0.00
2022-09-18T21:16:42.113Z,0.00
2022-09-18T21:17:42.101Z,0.00
2022-09-18T21:18:42.365Z,0.00
2022-09-18T21:19:42.353Z,0.00
2022-09-18T21:20:42.055Z,0.00
2022-09-18T21:21:42.080Z,0.00
2022-09-18T21:22:42.380Z,0.00
2022-09-18T21:23:42.331Z,0.00
2022-09-18T21:24:41.991Z,0.00
2022-09-18T21:25:42.121Z,0.00
2022-09-18T21:26:42.136Z,0.00
2022-09-18T21:27:42.119Z,0.00
2022-09-18T21:28:41.994Z,0.00
2022-09-18T21:29:41.889Z,0.00
2022-09-18T21:30:41.966Z,0.00
2022-09-18T21:31:48.734Z,0.00
2022-09-18T21:32:41.888Z,0.00
2022-09-18T21:33:41.987Z,0.00
2022-09-18T21:34:41.899Z,0.00
2022-09-18T21:35:42.091Z,0.00
2022-09-18T21:36:41.926Z,0.00
2022-09-18T21:37:42.337Z,0.00
2022-09-18T21:38:41.778Z,0.00
2022-09-18T21:39:41.745Z,0.00
2022-09-18T21:40:41.758Z,0.00
2022-09-18T21:41:41.763Z,0.00
2022-09-18T21:42:41.730Z,0.00
2022-09-18T21:43:41.951Z,0.00
2022-09-18T21:44:41.827Z,0.00
2022-09-18T21:45:41.775Z,0.00
2022-09-18T21:46:41.787Z,0.00
2022-09-18T21:47:41.810Z,0.00
2022-09-18T21:48:41.994Z,0.00
2022-09-18T21:49:42.052Z,0.00
2022-09-18T21:50:42.013Z,0.00
2022-09-18T21:51:41.941Z,0.00
2022-09-18T21:52:41.858Z,0.00
2022-09-18T21:53:42.042Z,0.00
2022-09-18T21:54:41.630Z,0.00
2022-09-18T21:55:41.694Z,0.00
2022-09-18T21:56:41.743Z,0.00
2022-09-18T21:57:41.769Z,0.00
2022-09-18T21:58:41.587Z,0.00
2022-09-18T21:59:41.521Z,0.00
2022-09-18T22:00:41.541Z,0.00
2022-09-18T22:01:41.857Z,0.00
2022-09-18T22:02:43.224Z,0.00
2022-09-18T22:03:41.812Z,0.00
2022-09-18T22:04:41.732Z,0.00
2022-09-18T22:05:41.861Z,0.00
2022-09-18T22:06:41.820Z,0.00
2022-09-18T22:07:42.042Z,0.00
2022-09-18T22:08:41.740Z,0.00
2022-09-18T22:09:41.753Z,0.00
2022-09-18T22:10:41.806Z,0.00
2022-09-18T22:11:41.507Z,0.00
2022-09-18T22:12:41.808Z,0.00
2022-09-18T22:13:41.893Z,0.00
2022-09-18T22:14:41.572Z,0.00
2022-09-18T22:15:41.640Z,0.00
2022-09-18T22:16:41.469Z,0.00
2022-09-18T22:17:41.685Z,0.00
2022-09-18T22:18:41.639Z,0.00
2022-09-18T22:19:41.795Z,0.00
2022-09-18T22:20:41.560Z,0.00
2022-09-18T22:21:41.726Z,0.00
2022-09-18T22:22:41.351Z,0.00
2022-09-18T22:23:41.726Z,0.00
2022-09-18T22:24:41.567Z,0.00
2022-09-18T22:25:41.281Z,0.00
2022-09-18T22:26:41.410Z,0.00
2022-09-18T22:27:41.627Z,0.00
2022-09-18T22:28:41.488Z,0.00
2022-09-18T22:29:41.455Z,0.00
2022-09-18T22:30:41.516Z,0.00
2022-09-18T22:31:41.609Z,0.00
2022-09-18T22:32:41.370Z,0.00
2022-09-18T22:33:41.373Z,0.00
2022-09-18T22:34:41.268Z,0.00
2022-09-18T22:35:41.407Z,0.00
2022-09-18T22:36:41.595Z,0.00
2022-09-18T22:37:41.958Z,0.00
2022-09-18T22:38:41.461Z,0.00
2022-09-18T22:39:41.230Z,0.00
2022-09-18T22:40:42.342Z,0.00
2022-09-18T22:41:41.409Z,0.00
2022-09-18T22:42:41.461Z,0.00
2022-09-18T22:43:41.447Z,0.00
2022-09-18T22:44:41.416Z,0.00
2022-09-18T22:45:41.283Z,0.00
2022-09-18T22:46:41.390Z,0.00
2022-09-18T22:47:41.379Z,0.00
2022-09-18T22:48:41.297Z,0.00
2022-09-18T22:49:42.058Z,0.00
2022-09-18T22:50:41.118Z,0.00
2022-09-18T22:51:41.366Z,0.00
2022-09-18T22:52:41.335Z,0.00
2022-09-18T22:53:45.762Z,0.00
2022-09-18T22:54:41.330Z,0.00
2022-09-18T22:55:41.183Z,0.00
2022-09-18T22:56:41.175Z,0.00
2022-09-18T22:57:41.151Z,0.00
2022-09-18T22:58:41.141Z,0.00
2022-09-18T22:59:41.147Z,0.00
2022-09-18T23:00:40.973Z,0.00
2022-09-18T23:01:41.058Z,0.00
2022-09-18T23:02:40.913Z,0.00
2022-09-18T23:03:40.906Z,0.00
2022-09-18T23:04:40.982Z,0.00
2022-09-18T23:05:40.790Z,0.00
2022-09-18T23:06:40.798Z,0.00
2022-09-18T23:07:40.782Z,0.00
2022-09-18T23:08:41.025Z,0.00
2022-09-18T23:09:40.912Z,0.00
2022-09-18T23:10:40.979Z,0.00
2022-09-18T23:11:40.932Z,0.00
2022-09-18T23:12:40.934Z,0.00
2022-09-18T23:13:41.063Z,0.00
2022-09-18T23:14:40.690Z,0.00
2022-09-18T23:15:40.806Z,0.00
2022-09-18T23:16:40.789Z,0.00
2022-09-18T23:17:41.051Z,0.00
2022-09-18T23:18:40.740Z,0.00
2022-09-18T23:19:40.805Z,0.00
2022-09-18T23:20:40.616Z,0.00
2022-09-18T23:21:40.640Z,0.00
2022-09-18T23:22:40.621Z,0.00
2022-09-18T23:23:40.561Z,0.00
2022-09-18T23:24:40.555Z,0.00
2022-09-18T23:25:41.096Z,0.00
2022-09-18T23:26:40.642Z,0.00
2022-09-18T23:27:40.673Z,0.00
2022-09-18T23:28:40.575Z,0.00
2022-09-18T23:29:40.913Z,0.00
2022-09-18T23:30:40.760Z,0.00
2022-09-18T23:31:40.876Z,0.00
2022-09-18T23:32:40.454Z,0.00
2022-09-18T23:33:40.535Z,0.00
2022-09-18T23:34:40.598Z,0.00
2022-09-18T23:35:40.424Z,0.00
2022-09-18T23:36:40.424Z,0.00
2022-09-18T23:37:40.592Z,0.00
2022-09-18T23:38:40.853Z,0.00
2022-09-18T23:39:40.647Z,0.00
2022-09-18T23:40:40.533Z,0.00
2022-09-18T23:41:40.360Z,0.00
2022-09-18T23:42:40.635Z,0.00
2022-09-18T23:43:41.046Z,0.00
2022-09-18T23:44:41.021Z,0.00
2022-09-18T23:45:40.420Z,0.00
2022-09-18T23:46:40.671Z,0.00
2022-09-18T23:47:40.372Z,0.00
2022-09-18T23:48:40.464Z,0.00
2022-09-18T23:49:40.605Z,0.00
2022-09-18T23:50:40.452Z,0.00
2022-09-18T23:51:40.437Z,0.00
2022-09-18T23:52:40.413Z,0.00
2022-09-18T23:53:42.129Z,0.00
2022-09-18T23:54:40.336Z,0.00
2022-09-18T23:55:40.367Z,0.00
2022-09-18T23:56:40.191Z,0.00
2022-09-18T23:57:40.404Z,0.00
2022-09-18T23:58:40.356Z,0.00
2022-09-18T23:59:40.283Z,0.00
